createdAt,value
2023-03-19T00:00:35.187Z,100689.66
2023-03-19T00:03:02.151Z,100681.75
2023-03-19T00:05:29.084Z,100686.53
2023-03-19T00:07:56.116Z,100694.31
2023-03-19T00:10:22.998Z,100681.88
2023-03-19T00:12:49.823Z,100693.50
2023-03-19T00:15:16.782Z,100687.50
2023-03-19T00:17:43.868Z,100670.13
2023-03-19T00:20:12.606Z,100679.84
2023-03-19T00:22:40.085Z,100691.81
2023-03-19T00:25:08.640Z,100682.34
2023-03-19T00:27:37.396Z,100685.81
2023-03-19T00:30:06.524Z,100687.63
2023-03-19T00:32:34.323Z,100684.16
2023-03-19T00:35:01.512Z,100687.97
2023-03-19T00:37:28.725Z,100666.66
2023-03-19T00:39:56.313Z,100675.25
2023-03-19T00:42:23.395Z,100676.00
2023-03-19T00:44:50.371Z,100684.13
2023-03-19T00:47:17.284Z,100679.69
2023-03-19T00:49:44.015Z,100660.13
2023-03-19T00:52:10.845Z,100676.53
2023-03-19T00:54:40.095Z,100675.22
2023-03-19T00:57:08.110Z,100665.47
2023-03-19T00:59:34.916Z,100670.75
2023-03-19T01:02:03.008Z,100664.66
2023-03-19T01:04:29.857Z,100658.31
2023-03-19T01:06:58.368Z,100668.22
2023-03-19T01:09:26.132Z,100661.53
2023-03-19T01:11:53.207Z,100656.38
2023-03-19T01:14:20.051Z,100653.13
2023-03-19T01:16:46.921Z,100661.03
2023-03-19T01:19:14.363Z,100654.78
2023-03-19T01:21:43.086Z,100646.09
2023-03-19T01:24:10.796Z,100656.50
2023-03-19T01:26:38.578Z,100653.94
2023-03-19T01:29:18.922Z,100605.19
2023-03-19T01:31:45.849Z,100646.75
2023-03-19T01:34:29.022Z,100646.91
2023-03-19T01:37:02.070Z,100645.56
2023-03-19T01:39:32.771Z,100648.53
2023-03-19T01:42:02.216Z,100639.53
2023-03-19T01:44:37.961Z,100628.91
2023-03-19T01:47:26.649Z,100652.88
2023-03-19T01:50:39.437Z,100642.47
2023-03-19T01:53:31.684Z,100648.88
2023-03-19T01:56:14.889Z,100647.25
2023-03-19T01:59:23.049Z,100636.56
2023-03-19T02:02:23.573Z,100655.28
2023-03-19T02:04:56.480Z,100649.72
2023-03-19T02:07:23.622Z,100653.94
2023-03-19T02:09:50.460Z,100636.31
2023-03-19T02:12:18.051Z,100653.00
2023-03-19T02:14:45.011Z,100660.66
2023-03-19T02:17:11.817Z,100626.94
2023-03-19T02:20:03.619Z,100652.78
2023-03-19T02:22:32.086Z,100635.44
2023-03-19T02:25:14.115Z,100646.44
2023-03-19T02:27:43.899Z,100641.03
2023-03-19T02:30:19.727Z,100649.00
2023-03-19T02:32:46.989Z,100651.69
2023-03-19T02:35:14.169Z,100657.91
2023-03-19T02:37:41.697Z,100638.34
2023-03-19T02:40:20.015Z,100653.38
2023-03-19T02:42:46.876Z,100649.00
2023-03-19T02:45:15.427Z,100649.19
2023-03-19T02:47:42.295Z,100652.84
2023-03-19T02:50:10.155Z,100649.19
2023-03-19T02:52:37.225Z,100650.66
2023-03-19T02:55:04.245Z,100652.44
2023-03-19T02:57:31.016Z,100658.63
2023-03-19T02:59:57.782Z,100638.78
2023-03-19T03:02:25.200Z,100650.84
2023-03-19T03:04:52.182Z,100668.69
2023-03-19T03:07:18.992Z,100672.06
2023-03-19T03:09:46.062Z,100669.56
2023-03-19T03:12:12.888Z,100663.88
2023-03-19T03:14:40.725Z,100675.09
2023-03-19T03:17:08.751Z,100662.81
2023-03-19T03:19:35.857Z,100674.47
2023-03-19T03:22:02.846Z,100660.22
2023-03-19T03:24:29.954Z,100665.09
2023-03-19T03:26:56.682Z,100681.34
2023-03-19T03:29:23.640Z,100681.44
2023-03-19T03:31:51.189Z,100685.75
2023-03-19T03:34:18.226Z,100659.41
2023-03-19T03:36:47.045Z,100682.31
2023-03-19T03:39:14.280Z,100681.06
2023-03-19T03:41:41.803Z,100660.34
2023-03-19T03:44:08.903Z,100677.59
2023-03-19T03:46:38.421Z,100684.97
2023-03-19T03:49:05.297Z,100684.75
2023-03-19T03:51:32.968Z,100678.59
2023-03-19T03:53:59.868Z,100669.94
2023-03-19T03:56:27.246Z,100682.66
2023-03-19T03:58:54.231Z,100687.72
2023-03-19T04:01:21.520Z,100665.00
2023-03-19T04:03:55.000Z,100680.34
2023-03-19T04:06:24.328Z,100693.59
2023-03-19T04:09:08.012Z,100689.56
2023-03-19T04:11:36.344Z,100681.28
2023-03-19T04:14:03.552Z,100690.53
2023-03-19T04:16:32.620Z,100688.84
2023-03-19T04:18:59.475Z,100680.53
2023-03-19T04:21:26.627Z,100670.97
2023-03-19T04:23:53.436Z,100654.19
2023-03-19T04:26:20.509Z,100672.47
2023-03-19T04:28:47.324Z,100671.97
2023-03-19T04:31:14.172Z,100677.66
2023-03-19T04:33:44.635Z,100671.25
2023-03-19T04:36:11.958Z,100666.41
2023-03-19T04:38:38.734Z,100656.88
2023-03-19T04:41:05.599Z,100642.88
2023-03-19T04:43:35.292Z,100670.06
2023-03-19T04:46:04.654Z,100653.81
2023-03-19T04:48:32.271Z,100662.84
2023-03-19T04:50:59.065Z,100665.34
2023-03-19T04:53:26.112Z,100666.41
2023-03-19T04:55:53.053Z,100657.16
2023-03-19T04:58:21.418Z,100677.00
2023-03-19T05:00:55.849Z,100676.84
2023-03-19T05:03:33.477Z,100673.66
2023-03-19T05:06:00.581Z,100661.91
2023-03-19T05:08:30.146Z,100680.72
2023-03-19T05:10:57.239Z,100684.69
2023-03-19T05:13:25.355Z,100657.91
2023-03-19T05:15:55.718Z,100663.72
2023-03-19T05:18:23.332Z,100674.31
2023-03-19T05:20:50.092Z,100682.63
2023-03-19T05:23:20.000Z,100677.03
2023-03-19T05:26:08.568Z,100676.00
2023-03-19T05:28:54.154Z,100685.13
2023-03-19T05:31:29.346Z,100672.50
2023-03-19T05:33:56.625Z,100674.16
2023-03-19T05:36:24.161Z,100668.78
2023-03-19T05:39:02.178Z,100679.56
2023-03-19T05:41:33.959Z,100686.22
2023-03-19T05:44:05.058Z,100684.63
2023-03-19T05:46:48.747Z,100688.38
2023-03-19T05:49:17.378Z,100664.00
2023-03-19T05:51:44.064Z,100655.88
2023-03-19T05:54:11.261Z,100681.09
2023-03-19T05:56:59.868Z,100672.13
2023-03-19T05:59:44.506Z,100679.69
2023-03-19T06:02:27.103Z,100651.09
2023-03-19T06:05:08.513Z,100677.34
2023-03-19T06:07:36.360Z,100682.88
2023-03-19T06:10:06.599Z,100665.88
2023-03-19T06:12:33.521Z,100658.47
2023-03-19T06:15:20.505Z,100676.44
2023-03-19T06:18:05.985Z,100644.81
2023-03-19T06:20:33.189Z,100682.47
2023-03-19T06:23:00.206Z,100678.63
2023-03-19T06:25:27.476Z,100686.78
2023-03-19T06:27:54.213Z,100689.75
2023-03-19T06:30:28.312Z,100687.72
2023-03-19T06:32:58.428Z,100700.22
2023-03-19T06:35:25.420Z,100708.13
2023-03-19T06:37:53.099Z,100701.78
2023-03-19T06:40:19.874Z,100703.41
2023-03-19T06:42:47.392Z,100705.09
2023-03-19T06:45:18.837Z,100710.00
2023-03-19T06:47:47.373Z,100716.97
2023-03-19T06:50:16.470Z,100722.13
2023-03-19T06:52:43.505Z,100719.13
2023-03-19T06:55:11.713Z,100729.53
2023-03-19T06:57:38.939Z,100721.38
2023-03-19T07:00:06.832Z,100717.28
2023-03-19T07:02:33.668Z,100729.38
2023-03-19T07:05:00.434Z,100719.06
2023-03-19T07:07:27.249Z,100717.25
2023-03-19T07:09:54.016Z,100719.50
2023-03-19T07:12:20.860Z,100700.81
2023-03-19T07:14:47.830Z,100708.31
2023-03-19T07:17:14.616Z,100712.34
2023-03-19T07:19:41.350Z,100720.81
2023-03-19T07:22:08.151Z,100704.28
2023-03-19T07:24:34.899Z,100692.22
2023-03-19T07:27:02.363Z,100701.31
2023-03-19T07:29:29.171Z,100711.88
2023-03-19T07:31:56.030Z,100708.91
2023-03-19T07:34:23.284Z,100721.09
2023-03-19T07:36:51.238Z,100719.84
2023-03-19T07:39:18.053Z,100718.56
2023-03-19T07:41:47.698Z,100714.34
2023-03-19T07:44:18.469Z,100721.88
2023-03-19T07:46:45.281Z,100725.81
2023-03-19T07:49:12.020Z,100710.94
2023-03-19T07:51:39.092Z,100700.50
2023-03-19T07:54:06.883Z,100713.69
2023-03-19T07:56:33.671Z,100708.53
2023-03-19T07:59:00.818Z,100706.94
2023-03-19T08:01:27.573Z,100689.22
2023-03-19T08:03:54.329Z,100698.41
2023-03-19T08:06:22.064Z,100690.34
2023-03-19T08:08:49.210Z,100699.53
2023-03-19T08:11:16.160Z,100706.75
2023-03-19T08:13:42.909Z,100699.63
2023-03-19T08:16:10.226Z,100697.69
2023-03-19T08:18:37.226Z,100712.19
2023-03-19T08:21:04.284Z,100722.88
2023-03-19T08:23:31.344Z,100701.19
2023-03-19T08:25:58.210Z,100711.84
2023-03-19T08:28:25.008Z,100723.97
2023-03-19T08:30:51.858Z,100715.22
2023-03-19T08:33:18.719Z,100711.84
2023-03-19T08:35:45.868Z,100708.84
2023-03-19T08:38:12.941Z,100711.34
2023-03-19T08:40:39.681Z,100697.16
2023-03-19T08:43:07.426Z,100709.66
2023-03-19T08:45:34.127Z,100702.13
2023-03-19T08:48:00.955Z,100704.66
2023-03-19T08:50:28.010Z,100707.47
2023-03-19T08:52:55.986Z,100689.38
2023-03-19T08:55:22.731Z,100700.91
2023-03-19T08:57:49.461Z,100709.72
2023-03-19T09:00:16.891Z,100718.09
2023-03-19T09:02:43.579Z,100709.09
2023-03-19T09:05:10.312Z,100708.69
2023-03-19T09:07:37.153Z,100700.31
2023-03-19T09:10:04.208Z,100698.50
2023-03-19T09:12:30.972Z,100699.78
2023-03-19T09:14:57.671Z,100700.31
2023-03-19T09:17:24.367Z,100698.94
2023-03-19T09:19:51.123Z,100676.38
2023-03-19T09:22:18.096Z,100689.22
2023-03-19T09:24:44.872Z,100666.22
2023-03-19T09:27:11.699Z,100687.53
2023-03-19T09:29:38.429Z,100685.47
2023-03-19T09:32:05.933Z,100680.28
2023-03-19T09:34:32.730Z,100698.38
2023-03-19T09:36:59.487Z,100701.56
2023-03-19T09:39:26.405Z,100698.91
2023-03-19T09:41:53.126Z,100704.09
2023-03-19T09:44:32.515Z,100678.75
2023-03-19T09:47:19.274Z,100700.31
2023-03-19T09:49:50.677Z,100697.44
2023-03-19T09:52:23.844Z,100698.72
2023-03-19T09:54:52.946Z,100698.28
2023-03-19T09:57:20.243Z,100692.97
2023-03-19T09:59:48.356Z,100694.81
2023-03-19T10:02:36.731Z,100692.31
2023-03-19T10:05:16.159Z,100700.25
2023-03-19T10:08:12.583Z,100698.44
2023-03-19T10:10:51.879Z,100691.59
2023-03-19T10:13:58.472Z,100689.50
2023-03-19T10:16:28.318Z,100687.53
2023-03-19T10:19:02.884Z,100658.84
2023-03-19T10:21:57.222Z,100672.47
2023-03-19T10:24:43.225Z,100650.16
2023-03-19T10:27:19.451Z,100662.16
2023-03-19T10:29:46.563Z,100658.25
2023-03-19T10:32:46.216Z,100662.00
2023-03-19T10:35:24.989Z,100651.66
2023-03-19T10:37:52.235Z,100649.69
2023-03-19T10:40:48.874Z,100652.72
2023-03-19T10:43:24.827Z,100642.47
2023-03-19T10:45:52.136Z,100636.03
2023-03-19T10:48:19.332Z,100642.13
2023-03-19T10:50:59.818Z,100637.91
2023-03-19T10:53:35.202Z,100626.25
2023-03-19T10:56:06.084Z,100613.03
2023-03-19T10:58:35.644Z,100628.03
2023-03-19T11:01:12.167Z,100609.06
2023-03-19T11:03:49.515Z,100622.00
2023-03-19T11:06:35.500Z,100617.81
2023-03-19T11:09:16.485Z,100608.69
2023-03-19T11:11:47.473Z,100607.72
2023-03-19T11:14:29.535Z,100610.06
2023-03-19T11:17:22.256Z,100587.84
2023-03-19T11:19:55.603Z,100579.53
2023-03-19T11:22:29.782Z,100588.66
2023-03-19T11:25:01.026Z,100580.22
2023-03-19T11:27:35.970Z,100562.91
2023-03-19T11:30:13.242Z,100577.09
2023-03-19T11:32:46.712Z,100581.31
2023-03-19T11:35:29.043Z,100563.06
2023-03-19T11:37:58.568Z,100565.94
2023-03-19T11:41:02.201Z,100561.47
2023-03-19T11:43:56.418Z,100542.53
2023-03-19T11:46:41.708Z,100548.19
2023-03-19T11:49:32.886Z,100527.56
2023-03-19T11:52:29.637Z,100536.69
2023-03-19T11:55:02.497Z,100525.63
2023-03-19T11:57:56.733Z,100520.22
2023-03-19T12:00:48.232Z,100520.22
2023-03-19T12:03:52.590Z,100517.03
2023-03-19T12:06:57.134Z,100507.50
2023-03-19T12:09:36.076Z,100504.75
2023-03-19T12:12:14.973Z,100505.34
2023-03-19T12:14:51.104Z,100510.47
2023-03-19T12:17:37.878Z,100508.72
2023-03-19T12:20:24.590Z,100493.94
2023-03-19T12:23:17.169Z,100486.13
2023-03-19T12:25:59.684Z,100492.47
2023-03-19T12:28:40.597Z,100479.78
2023-03-19T12:31:27.945Z,100481.28
2023-03-19T12:34:19.758Z,100483.63
2023-03-19T12:36:54.069Z,100465.41
2023-03-19T12:39:31.458Z,100473.94
2023-03-19T12:42:00.182Z,100468.59
2023-03-19T12:44:39.542Z,100469.41
2023-03-19T12:47:31.001Z,100458.97
2023-03-19T12:50:03.065Z,100458.31
2023-03-19T12:52:39.770Z,100462.63
2023-03-19T12:55:20.610Z,100444.16
2023-03-19T12:58:18.602Z,100460.66
2023-03-19T13:01:14.896Z,100453.84
2023-03-19T13:03:56.991Z,100453.69
2023-03-19T13:06:53.748Z,100458.50
2023-03-19T13:09:32.124Z,100450.03
2023-03-19T13:12:05.189Z,100445.53
2023-03-19T13:14:55.320Z,100445.53
2023-03-19T13:17:42.355Z,100436.06
2023-03-19T13:20:24.795Z,100426.75
2023-03-19T13:22:57.269Z,100435.72
2023-03-19T13:25:31.847Z,100420.78
2023-03-19T13:27:58.855Z,100415.28
2023-03-19T13:30:26.498Z,100427.56
2023-03-19T13:33:03.098Z,100415.44
2023-03-19T13:35:52.424Z,100404.75
2023-03-19T13:38:28.108Z,100418.75
2023-03-19T13:40:59.620Z,100402.25
2023-03-19T13:43:28.650Z,100422.06
2023-03-19T13:46:05.006Z,100413.22
2023-03-19T13:48:31.813Z,100421.69
2023-03-19T13:51:03.555Z,100422.38
2023-03-19T13:53:52.666Z,100401.56
2023-03-19T13:56:29.625Z,100416.09
2023-03-19T13:59:25.238Z,100407.41
2023-03-19T14:01:52.133Z,100406.94
2023-03-19T14:04:23.791Z,100399.31
2023-03-19T14:07:12.546Z,100411.94
2023-03-19T14:09:47.876Z,100407.94
2023-03-19T14:12:18.055Z,100411.94
2023-03-19T14:14:53.682Z,100399.78
2023-03-19T14:17:45.242Z,100390.97
2023-03-19T14:20:13.178Z,100402.13
2023-03-19T14:23:02.108Z,100381.50
2023-03-19T14:25:58.043Z,100392.81
2023-03-19T14:28:33.988Z,100390.97
2023-03-19T14:31:03.257Z,100378.66
2023-03-19T14:33:56.721Z,100384.16
2023-03-19T14:36:23.820Z,100386.66
2023-03-19T14:38:55.975Z,100373.50
2023-03-19T14:41:26.003Z,100379.16
2023-03-19T14:44:25.718Z,100385.00
2023-03-19T14:47:12.024Z,100372.19
2023-03-19T14:50:00.855Z,100377.66
2023-03-19T14:52:41.732Z,100382.97
2023-03-19T14:55:11.618Z,100385.97
2023-03-19T14:57:38.590Z,100382.47
2023-03-19T15:00:09.988Z,100387.97
2023-03-19T15:02:40.358Z,100386.13
2023-03-19T15:05:36.802Z,100384.00
2023-03-19T15:08:12.614Z,100369.50
2023-03-19T15:10:55.269Z,100368.53
2023-03-19T15:13:36.594Z,100380.97
2023-03-19T15:16:21.605Z,100383.78
2023-03-19T15:18:49.392Z,100383.78
2023-03-19T15:21:16.672Z,100383.75
2023-03-19T15:23:46.506Z,100383.56
2023-03-19T15:26:13.864Z,100378.41
2023-03-19T15:28:49.577Z,100379.69
2023-03-19T15:31:32.013Z,100391.13
2023-03-19T15:34:24.440Z,100391.94
2023-03-19T15:37:09.367Z,100393.06
2023-03-19T15:39:42.745Z,100400.03
2023-03-19T15:42:10.270Z,100396.34
2023-03-19T15:44:44.581Z,100381.19
2023-03-19T15:47:17.261Z,100407.09
2023-03-19T15:50:09.498Z,100405.41
2023-03-19T15:52:43.394Z,100396.09
2023-03-19T15:55:12.861Z,100398.47
2023-03-19T15:57:41.325Z,100404.38
2023-03-19T16:00:12.614Z,100407.84
2023-03-19T16:02:46.868Z,100410.66
2023-03-19T16:05:31.387Z,100391.16
2023-03-19T16:08:01.108Z,100406.28
2023-03-19T16:10:40.284Z,100414.75
2023-03-19T16:13:25.910Z,100410.75
2023-03-19T16:16:22.464Z,100418.03
2023-03-19T16:18:55.596Z,100408.81
2023-03-19T16:21:38.974Z,100414.66
2023-03-19T16:24:08.766Z,100422.63
2023-03-19T16:26:42.319Z,100425.88
2023-03-19T16:29:25.583Z,100422.56
2023-03-19T16:31:56.891Z,100408.34
2023-03-19T16:34:32.020Z,100428.13
2023-03-19T16:36:59.768Z,100430.22
2023-03-19T16:39:35.689Z,100423.72
2023-03-19T16:42:31.347Z,100426.53
2023-03-19T16:45:02.050Z,100420.19
2023-03-19T16:47:28.777Z,100411.75
2023-03-19T16:49:55.811Z,100416.25
2023-03-19T16:52:24.682Z,100438.97
2023-03-19T16:54:52.262Z,100444.41
2023-03-19T16:57:19.772Z,100434.94
2023-03-19T16:59:47.548Z,100440.69
2023-03-19T17:02:16.666Z,100436.00
2023-03-19T17:04:44.283Z,100447.44
2023-03-19T17:07:12.427Z,100448.72
2023-03-19T17:09:39.369Z,100449.03
2023-03-19T17:12:12.919Z,100436.66
2023-03-19T17:14:40.153Z,100454.63
2023-03-19T17:17:18.107Z,100453.94
2023-03-19T17:19:46.609Z,100455.91
2023-03-19T17:22:14.414Z,100461.50
2023-03-19T17:24:41.684Z,100443.44
2023-03-19T17:27:09.859Z,100448.75
2023-03-19T17:29:36.631Z,100461.28
2023-03-19T17:32:05.686Z,100463.09
2023-03-19T17:34:33.051Z,100450.72
2023-03-19T17:37:01.938Z,100453.63
2023-03-19T17:39:32.950Z,100464.38
2023-03-19T17:41:59.941Z,100443.22
2023-03-19T17:44:27.925Z,100453.91
2023-03-19T17:46:56.146Z,100452.66
2023-03-19T17:49:24.546Z,100458.66
2023-03-19T17:51:52.037Z,100456.84
2023-03-19T17:54:18.902Z,100444.63
2023-03-19T17:56:46.010Z,100455.19
2023-03-19T17:59:13.497Z,100448.66
2023-03-19T18:01:44.206Z,100447.28
2023-03-19T18:04:14.345Z,100460.63
2023-03-19T18:06:45.371Z,100454.25
2023-03-19T18:09:20.965Z,100458.13
2023-03-19T18:11:47.857Z,100456.31
2023-03-19T18:14:14.729Z,100421.81
2023-03-19T18:16:42.064Z,100460.91
2023-03-19T18:19:33.454Z,100459.66
2023-03-19T18:22:00.742Z,100458.81
2023-03-19T18:24:27.451Z,100451.28
2023-03-19T18:26:54.247Z,100456.75
2023-03-19T18:29:21.086Z,100469.31
2023-03-19T18:31:50.429Z,100465.88
2023-03-19T18:34:17.835Z,100469.63
2023-03-19T18:36:44.813Z,100469.53
2023-03-19T18:39:16.135Z,100480.00
2023-03-19T18:41:43.809Z,100476.81
2023-03-19T18:44:12.197Z,100478.94
2023-03-19T18:46:40.349Z,100484.91
2023-03-19T18:49:21.587Z,100488.25
2023-03-19T18:52:01.603Z,100487.69
2023-03-19T18:54:31.274Z,100491.88
2023-03-19T18:57:00.277Z,100496.19
2023-03-19T18:59:32.869Z,100494.47
2023-03-19T19:02:31.707Z,100497.66
2023-03-19T19:04:58.650Z,100495.72
2023-03-19T19:07:25.453Z,100495.28
2023-03-19T19:09:52.424Z,100495.97
2023-03-19T19:12:19.704Z,100501.13
2023-03-19T19:14:46.954Z,100504.59
2023-03-19T19:17:18.232Z,100493.22
2023-03-19T19:19:45.467Z,100505.19
2023-03-19T19:22:19.809Z,100508.25
2023-03-19T19:24:47.069Z,100504.63
2023-03-19T19:27:28.952Z,100492.69
2023-03-19T19:29:55.845Z,100501.31
2023-03-19T19:32:26.241Z,100506.31
2023-03-19T19:34:53.647Z,100497.66
2023-03-19T19:37:23.232Z,100506.56
2023-03-19T19:39:50.515Z,100502.09
2023-03-19T19:42:19.881Z,100501.81
2023-03-19T19:44:52.189Z,100500.16
2023-03-19T19:47:19.006Z,100500.84
2023-03-19T19:49:46.034Z,100496.78
2023-03-19T19:52:17.759Z,100499.44
2023-03-19T19:54:45.780Z,100484.72
2023-03-19T19:57:24.807Z,100492.63
2023-03-19T19:59:53.269Z,100493.63
2023-03-19T20:02:26.642Z,100481.50
2023-03-19T20:04:53.799Z,100503.19
2023-03-19T20:07:20.675Z,100487.31
2023-03-19T20:09:48.248Z,100499.56
2023-03-19T20:12:20.314Z,100507.25
2023-03-19T20:14:47.364Z,100502.22
2023-03-19T20:17:18.359Z,100506.69
2023-03-19T20:19:45.412Z,100489.81
2023-03-19T20:22:12.302Z,100495.97
2023-03-19T20:24:39.462Z,100498.47
2023-03-19T20:27:28.206Z,100500.69
2023-03-19T20:29:55.273Z,100498.72
2023-03-19T20:32:34.773Z,100498.59
2023-03-19T20:35:02.848Z,100487.59
2023-03-19T20:37:30.284Z,100501.94
2023-03-19T20:39:57.099Z,100495.53
2023-03-19T20:42:25.504Z,100502.66
2023-03-19T20:44:57.084Z,100511.56
2023-03-19T20:47:25.760Z,100500.16
2023-03-19T20:49:53.432Z,100504.84
2023-03-19T20:52:20.853Z,100511.81
2023-03-19T20:54:48.259Z,100506.53
2023-03-19T20:57:16.762Z,100516.97
2023-03-19T20:59:46.232Z,100519.31
2023-03-19T21:02:22.116Z,100515.84
2023-03-19T21:04:49.298Z,100522.38
2023-03-19T21:07:34.576Z,100519.72
2023-03-19T21:10:06.550Z,100518.50
2023-03-19T21:12:36.189Z,100522.41
2023-03-19T21:15:03.087Z,100517.53
2023-03-19T21:17:30.156Z,100521.19
2023-03-19T21:19:56.970Z,100517.97
2023-03-19T21:22:28.550Z,100516.44
2023-03-19T21:25:04.555Z,100513.63
2023-03-19T21:27:33.998Z,100511.97
2023-03-19T21:30:00.854Z,100517.13
2023-03-19T21:32:27.970Z,100493.47
2023-03-19T21:34:54.801Z,100504.19
2023-03-19T21:37:21.688Z,100503.63
2023-03-19T21:39:48.431Z,100499.31
2023-03-19T21:42:18.893Z,100489.03
2023-03-19T21:44:46.857Z,100491.53
2023-03-19T21:47:17.741Z,100497.66
2023-03-19T21:49:44.863Z,100509.94
2023-03-19T21:52:23.712Z,100517.19
2023-03-19T21:54:50.760Z,100514.13
2023-03-19T21:57:17.484Z,100501.75
2023-03-19T21:59:48.596Z,100514.16
2023-03-19T22:02:27.682Z,100518.66
2023-03-19T22:04:54.631Z,100504.84
2023-03-19T22:07:21.592Z,100509.59
2023-03-19T22:09:48.593Z,100512.53
2023-03-19T22:12:27.558Z,100515.75
2023-03-19T22:14:54.835Z,100501.00
2023-03-19T22:17:25.292Z,100513.13
2023-03-19T22:19:52.336Z,100515.91
2023-03-19T22:22:19.126Z,100515.34
2023-03-19T22:24:46.089Z,100518.13
2023-03-19T22:27:17.560Z,100518.13
2023-03-19T22:29:47.482Z,100522.88
2023-03-19T22:32:16.612Z,100513.28
2023-03-19T22:34:43.962Z,100517.84
2023-03-19T22:37:27.771Z,100499.63
2023-03-19T22:39:55.057Z,100515.66
2023-03-19T22:42:26.256Z,100497.97
2023-03-19T22:44:54.696Z,100515.34
2023-03-19T22:47:24.769Z,100517.56
2023-03-19T22:49:51.967Z,100507.69
2023-03-19T22:52:18.697Z,100518.69
2023-03-19T22:54:45.619Z,100515.34
2023-03-19T22:57:14.934Z,100510.63
2023-03-19T22:59:42.926Z,100514.22
2023-03-19T23:02:13.942Z,100509.75
2023-03-19T23:04:41.343Z,100514.09
2023-03-19T23:07:12.516Z,100487.78
2023-03-19T23:09:39.345Z,100498.66
2023-03-19T23:14:35.125Z,100514.06
2023-03-19T23:17:17.450Z,100508.78
2023-03-19T23:19:44.734Z,100505.31
2023-03-19T23:22:16.464Z,100486.09
2023-03-19T23:24:44.744Z,100513.25
2023-03-19T23:27:24.244Z,100502.81
2023-03-19T23:29:51.263Z,100505.44
2023-03-19T23:32:18.042Z,100507.94
2023-03-19T23:34:57.667Z,100498.50
2023-03-19T23:37:28.917Z,100516.31
2023-03-19T23:39:56.451Z,100508.34
2023-03-19T23:42:31.771Z,100515.34
2023-03-19T23:45:02.228Z,100489.72
2023-03-19T23:47:29.795Z,100510.91
2023-03-19T23:49:57.298Z,100514.94
2023-03-19T23:52:24.098Z,100509.59
2023-03-19T23:54:50.942Z,100504.84
2023-03-19T23:57:17.797Z,100512.22
2023-03-19T23:59:47.830Z,100477.41
